sensor_id;sensor_type;location;lat;lon;timestamp;P1;durP1;ratioP1;P2;durP2;ratioP2
43114;SDS011;28727;50.068;14.452;2022-10-28T00:01:17;29.52;;;18.05;;
43114;SDS011;28727;50.068;14.452;2022-10-28T00:03:55;30.60;;;18.45;;
43114;SDS011;28727;50.068;14.452;2022-10-28T00:06:33;27.27;;;16.80;;
43114;SDS011;28727;50.068;14.452;2022-10-28T00:11:43;26.20;;;16.83;;
43114;SDS011;28727;50.068;14.452;2022-10-28T00:14:14;29.08;;;17.90;;
43114;SDS011;28727;50.068;14.452;2022-10-28T00:16:48;33.10;;;18.38;;
43114;SDS011;28727;50.068;14.452;2022-10-28T00:19:19;32.05;;;19.58;;
43114;SDS011;28727;50.068;14.452;2022-10-28T00:21:51;31.40;;;18.40;;
43114;SDS011;28727;50.068;14.452;2022-10-28T00:24:23;28.02;;;18.13;;
43114;SDS011;28727;50.068;14.452;2022-10-28T00:26:54;31.75;;;19.58;;
43114;SDS011;28727;50.068;14.452;2022-10-28T00:29:26;33.03;;;20.23;;
43114;SDS011;28727;50.068;14.452;2022-10-28T00:32:03;34.38;;;20.08;;
43114;SDS011;28727;50.068;14.452;2022-10-28T00:34:36;30.75;;;18.15;;
43114;SDS011;28727;50.068;14.452;2022-10-28T00:37:12;30.38;;;19.42;;
43114;SDS011;28727;50.068;14.452;2022-10-28T00:39:43;29.38;;;21.52;;
43114;SDS011;28727;50.068;14.452;2022-10-28T00:42:20;31.35;;;20.88;;
43114;SDS011;28727;50.068;14.452;2022-10-28T00:47:52;29.25;;;18.63;;
43114;SDS011;28727;50.068;14.452;2022-10-28T00:53:03;30.80;;;18.60;;
43114;SDS011;28727;50.068;14.452;2022-10-28T00:55:40;28.02;;;18.17;;
43114;SDS011;28727;50.068;14.452;2022-10-28T00:58:14;30.27;;;17.67;;
43114;SDS011;28727;50.068;14.452;2022-10-28T01:00:49;26.73;;;17.65;;
43114;SDS011;28727;50.068;14.452;2022-10-28T01:03:20;27.65;;;18.25;;
43114;SDS011;28727;50.068;14.452;2022-10-28T01:05:55;34.20;;;22.23;;
43114;SDS011;28727;50.068;14.452;2022-10-28T01:08:31;33.83;;;21.90;;
43114;SDS011;28727;50.068;14.452;2022-10-28T01:23:10;30.75;;;20.05;;
43114;SDS011;28727;50.068;14.452;2022-10-28T01:32:03;29.88;;;19.45;;
43114;SDS011;28727;50.068;14.452;2022-10-28T01:34:59;29.85;;;20.38;;
43114;SDS011;28727;50.068;14.452;2022-10-28T01:40:51;29.48;;;20.48;;
43114;SDS011;28727;50.068;14.452;2022-10-28T01:43:33;30.95;;;19.73;;
43114;SDS011;28727;50.068;14.452;2022-10-28T01:46:34;32.25;;;20.60;;
43114;SDS011;28727;50.068;14.452;2022-10-28T01:49:27;24.45;;;17.08;;
43114;SDS011;28727;50.068;14.452;2022-10-28T01:52:22;29.02;;;18.08;;
43114;SDS011;28727;50.068;14.452;2022-10-28T01:55:09;30.45;;;19.20;;
43114;SDS011;28727;50.068;14.452;2022-10-28T01:58:04;30.83;;;18.40;;
43114;SDS011;28727;50.068;14.452;2022-10-28T02:00:39;29.70;;;19.65;;
43114;SDS011;28727;50.068;14.452;2022-10-28T02:03:15;34.38;;;21.48;;
43114;SDS011;28727;50.068;14.452;2022-10-28T02:05:53;31.40;;;23.05;;
43114;SDS011;28727;50.068;14.452;2022-10-28T02:11:39;39.35;;;21.45;;
43114;SDS011;28727;50.068;14.452;2022-10-28T02:14:04;32.28;;;18.63;;
43114;SDS011;28727;50.068;14.452;2022-10-28T02:16:49;32.53;;;19.45;;
43114;SDS011;28727;50.068;14.452;2022-10-28T02:29:11;23.08;;;17.40;;
43114;SDS011;28727;50.068;14.452;2022-10-28T02:32:03;28.98;;;17.85;;
43114;SDS011;28727;50.068;14.452;2022-10-28T02:34:48;27.15;;;16.17;;
43114;SDS011;28727;50.068;14.452;2022-10-28T02:37:28;29.05;;;18.60;;
43114;SDS011;28727;50.068;14.452;2022-10-28T02:40:04;31.25;;;18.92;;
43114;SDS011;28727;50.068;14.452;2022-10-28T02:42:42;28.70;;;19.10;;
43114;SDS011;28727;50.068;14.452;2022-10-28T02:45:24;27.92;;;18.23;;
43114;SDS011;28727;50.068;14.452;2022-10-28T02:48:04;29.73;;;17.63;;
43114;SDS011;28727;50.068;14.452;2022-10-28T02:50:44;25.88;;;17.10;;
43114;SDS011;28727;50.068;14.452;2022-10-28T02:53:25;26.33;;;16.17;;
43114;SDS011;28727;50.068;14.452;2022-10-28T02:56:02;23.45;;;16.67;;
43114;SDS011;28727;50.068;14.452;2022-10-28T02:58:37;25.67;;;17.77;;
43114;SDS011;28727;50.068;14.452;2022-10-28T03:01:16;23.50;;;17.33;;
43114;SDS011;28727;50.068;14.452;2022-10-28T03:03:48;22.02;;;17.40;;
43114;SDS011;28727;50.068;14.452;2022-10-28T03:06:22;23.40;;;16.42;;
43114;SDS011;28727;50.068;14.452;2022-10-28T03:08:58;26.20;;;18.02;;
43114;SDS011;28727;50.068;14.452;2022-10-28T03:14:05;25.25;;;17.55;;
43114;SDS011;28727;50.068;14.452;2022-10-28T03:16:42;23.42;;;15.90;;
43114;SDS011;28727;50.068;14.452;2022-10-28T03:19:16;24.05;;;16.55;;
43114;SDS011;28727;50.068;14.452;2022-10-28T03:21:48;21.85;;;16.15;;
43114;SDS011;28727;50.068;14.452;2022-10-28T03:24:21;23.13;;;16.33;;
43114;SDS011;28727;50.068;14.452;2022-10-28T03:26:53;21.98;;;15.63;;
43114;SDS011;28727;50.068;14.452;2022-10-28T03:29:30;22.23;;;15.27;;
43114;SDS011;28727;50.068;14.452;2022-10-28T03:34:33;21.15;;;15.30;;
43114;SDS011;28727;50.068;14.452;2022-10-28T03:37:05;25.00;;;15.93;;
43114;SDS011;28727;50.068;14.452;2022-10-28T03:39:36;20.40;;;15.15;;
43114;SDS011;28727;50.068;14.452;2022-10-28T03:42:10;21.75;;;14.68;;
43114;SDS011;28727;50.068;14.452;2022-10-28T03:44:44;23.27;;;15.73;;
43114;SDS011;28727;50.068;14.452;2022-10-28T03:47:15;19.95;;;13.85;;
43114;SDS011;28727;50.068;14.452;2022-10-28T03:49:47;18.67;;;14.32;;
43114;SDS011;28727;50.068;14.452;2022-10-28T03:52:20;21.50;;;14.07;;
43114;SDS011;28727;50.068;14.452;2022-10-28T03:54:51;19.45;;;14.82;;
43114;SDS011;28727;50.068;14.452;2022-10-28T03:57:23;20.65;;;13.98;;
43114;SDS011;28727;50.068;14.452;2022-10-28T03:59:55;19.00;;;14.25;;
43114;SDS011;28727;50.068;14.452;2022-10-28T04:02:26;17.38;;;13.77;;
43114;SDS011;28727;50.068;14.452;2022-10-28T04:04:58;19.27;;;13.85;;
43114;SDS011;28727;50.068;14.452;2022-10-28T04:07:30;19.25;;;13.90;;
43114;SDS011;28727;50.068;14.452;2022-10-28T04:10:04;18.50;;;13.35;;
43114;SDS011;28727;50.068;14.452;2022-10-28T04:15:08;18.60;;;13.65;;
43114;SDS011;28727;50.068;14.452;2022-10-28T04:17:39;21.13;;;14.15;;
43114;SDS011;28727;50.068;14.452;2022-10-28T04:20:11;18.25;;;13.40;;
43114;SDS011;28727;50.068;14.452;2022-10-28T04:22:42;20.67;;;14.43;;
43114;SDS011;28727;50.068;14.452;2022-10-28T04:25:14;18.65;;;13.32;;
43114;SDS011;28727;50.068;14.452;2022-10-28T04:27:51;17.42;;;12.90;;
43114;SDS011;28727;50.068;14.452;2022-10-28T04:30:23;19.42;;;13.13;;
43114;SDS011;28727;50.068;14.452;2022-10-28T04:32:55;22.15;;;14.55;;
43114;SDS011;28727;50.068;14.452;2022-10-28T04:35:28;19.33;;;13.95;;
43114;SDS011;28727;50.068;14.452;2022-10-28T04:38:02;21.05;;;14.73;;
43114;SDS011;28727;50.068;14.452;2022-10-28T04:40:36;24.65;;;15.80;;
43114;SDS011;28727;50.068;14.452;2022-10-28T04:45:41;20.77;;;14.55;;
43114;SDS011;28727;50.068;14.452;2022-10-28T04:48:13;20.95;;;14.68;;
43114;SDS011;28727;50.068;14.452;2022-10-28T04:50:45;20.95;;;15.35;;
43114;SDS011;28727;50.068;14.452;2022-10-28T04:53:16;20.95;;;15.32;;
43114;SDS011;28727;50.068;14.452;2022-10-28T04:55:48;22.90;;;14.55;;
43114;SDS011;28727;50.068;14.452;2022-10-28T04:58:21;19.92;;;13.90;;
43114;SDS011;28727;50.068;14.452;2022-10-28T05:00:53;21.15;;;14.48;;
43114;SDS011;28727;50.068;14.452;2022-10-28T05:03:24;22.92;;;15.52;;
43114;SDS011;28727;50.068;14.452;2022-10-28T05:05:56;19.60;;;14.07;;
43114;SDS011;28727;50.068;14.452;2022-10-28T05:08:31;20.33;;;14.38;;
43114;SDS011;28727;50.068;14.452;2022-10-28T05:11:04;22.05;;;14.93;;
43114;SDS011;28727;50.068;14.452;2022-10-28T05:13:38;21.67;;;14.38;;
43114;SDS011;28727;50.068;14.452;2022-10-28T05:16:10;23.20;;;15.35;;
43114;SDS011;28727;50.068;14.452;2022-10-28T05:18:44;21.95;;;16.02;;
43114;SDS011;28727;50.068;14.452;2022-10-28T05:21:20;20.88;;;15.02;;
43114;SDS011;28727;50.068;14.452;2022-10-28T05:23:55;21.55;;;15.02;;
43114;SDS011;28727;50.068;14.452;2022-10-28T05:26:27;19.02;;;14.27;;
43114;SDS011;28727;50.068;14.452;2022-10-28T05:28:59;20.52;;;14.98;;
43114;SDS011;28727;50.068;14.452;2022-10-28T05:31:31;23.88;;;15.93;;
43114;SDS011;28727;50.068;14.452;2022-10-28T05:34:02;25.17;;;16.30;;
43114;SDS011;28727;50.068;14.452;2022-10-28T05:36:34;21.48;;;14.73;;
43114;SDS011;28727;50.068;14.452;2022-10-28T05:39:09;22.23;;;15.35;;
43114;SDS011;28727;50.068;14.452;2022-10-28T05:41:44;19.90;;;14.63;;
43114;SDS011;28727;50.068;14.452;2022-10-28T05:44:15;23.85;;;15.57;;
43114;SDS011;28727;50.068;14.452;2022-10-28T05:46:50;22.95;;;15.90;;
43114;SDS011;28727;50.068;14.452;2022-10-28T05:49:22;21.73;;;15.32;;
43114;SDS011;28727;50.068;14.452;2022-10-28T05:51:56;20.13;;;13.63;;
43114;SDS011;28727;50.068;14.452;2022-10-28T05:54:30;19.40;;;14.23;;
43114;SDS011;28727;50.068;14.452;2022-10-28T05:57:04;18.60;;;13.15;;
43114;SDS011;28727;50.068;14.452;2022-10-28T05:59:35;20.17;;;13.68;;
43114;SDS011;28727;50.068;14.452;2022-10-28T06:02:11;19.17;;;13.05;;
43114;SDS011;28727;50.068;14.452;2022-10-28T06:04:45;22.42;;;14.27;;
43114;SDS011;28727;50.068;14.452;2022-10-28T06:07:16;17.52;;;13.07;;
43114;SDS011;28727;50.068;14.452;2022-10-28T06:09:48;18.67;;;13.18;;
43114;SDS011;28727;50.068;14.452;2022-10-28T06:14:57;21.67;;;13.45;;
43114;SDS011;28727;50.068;14.452;2022-10-28T06:17:29;19.42;;;12.63;;
43114;SDS011;28727;50.068;14.452;2022-10-28T06:20:04;16.80;;;12.65;;
43114;SDS011;28727;50.068;14.452;2022-10-28T06:22:37;18.45;;;13.10;;
43114;SDS011;28727;50.068;14.452;2022-10-28T06:25:09;18.38;;;12.10;;
43114;SDS011;28727;50.068;14.452;2022-10-28T06:27:40;16.23;;;12.27;;
43114;SDS011;28727;50.068;14.452;2022-10-28T06:30:15;17.80;;;11.90;;
43114;SDS011;28727;50.068;14.452;2022-10-28T06:32:47;16.75;;;11.50;;
43114;SDS011;28727;50.068;14.452;2022-10-28T06:35:21;17.17;;;10.55;;
43114;SDS011;28727;50.068;14.452;2022-10-28T06:37:53;16.42;;;11.25;;
43114;SDS011;28727;50.068;14.452;2022-10-28T06:40:27;14.80;;;10.23;;
43114;SDS011;28727;50.068;14.452;2022-10-28T06:43:00;13.52;;;9.50;;
43114;SDS011;28727;50.068;14.452;2022-10-28T06:45:33;13.60;;;9.95;;
43114;SDS011;28727;50.068;14.452;2022-10-28T06:48:05;14.60;;;10.27;;
43114;SDS011;28727;50.068;14.452;2022-10-28T06:50:41;14.13;;;10.10;;
43114;SDS011;28727;50.068;14.452;2022-10-28T06:55:56;13.77;;;9.93;;
43114;SDS011;28727;50.068;14.452;2022-10-28T06:58:28;14.18;;;10.55;;
43114;SDS011;28727;50.068;14.452;2022-10-28T07:01:03;12.68;;;10.27;;
43114;SDS011;28727;50.068;14.452;2022-10-28T07:03:35;14.57;;;10.75;;
43114;SDS011;28727;50.068;14.452;2022-10-28T07:06:08;14.57;;;10.88;;
43114;SDS011;28727;50.068;14.452;2022-10-28T07:08:41;15.02;;;10.75;;
43114;SDS011;28727;50.068;14.452;2022-10-28T07:11:12;13.60;;;10.40;;
43114;SDS011;28727;50.068;14.452;2022-10-28T07:13:44;15.80;;;11.10;;
43114;SDS011;28727;50.068;14.452;2022-10-28T07:16:24;15.55;;;10.90;;
43114;SDS011;28727;50.068;14.452;2022-10-28T07:18:56;17.67;;;10.85;;
43114;SDS011;28727;50.068;14.452;2022-10-28T07:21:30;16.33;;;10.45;;
43114;SDS011;28727;50.068;14.452;2022-10-28T07:24:02;15.25;;;10.50;;
43114;SDS011;28727;50.068;14.452;2022-10-28T07:26:33;12.52;;;9.65;;
43114;SDS011;28727;50.068;14.452;2022-10-28T07:29:05;14.25;;;10.07;;
43114;SDS011;28727;50.068;14.452;2022-10-28T07:31:36;13.43;;;9.63;;
43114;SDS011;28727;50.068;14.452;2022-10-28T07:34:08;15.63;;;10.88;;
43114;SDS011;28727;50.068;14.452;2022-10-28T07:36:40;12.40;;;9.73;;
43114;SDS011;28727;50.068;14.452;2022-10-28T07:39:15;14.88;;;10.18;;
43114;SDS011;28727;50.068;14.452;2022-10-28T07:41:47;13.10;;;9.27;;
43114;SDS011;28727;50.068;14.452;2022-10-28T07:44:19;11.60;;;8.63;;
43114;SDS011;28727;50.068;14.452;2022-10-28T07:46:52;11.23;;;8.57;;
43114;SDS011;28727;50.068;14.452;2022-10-28T07:49:31;12.07;;;8.35;;
43114;SDS011;28727;50.068;14.452;2022-10-28T07:54:34;10.02;;;7.80;;
43114;SDS011;28727;50.068;14.452;2022-10-28T07:57:06;10.98;;;8.15;;
43114;SDS011;28727;50.068;14.452;2022-10-28T07:59:37;10.98;;;7.55;;
43114;SDS011;28727;50.068;14.452;2022-10-28T08:02:13;10.68;;;7.45;;
43114;SDS011;28727;50.068;14.452;2022-10-28T08:04:48;11.80;;;8.60;;
43114;SDS011;28727;50.068;14.452;2022-10-28T08:07:26;10.85;;;8.38;;
43114;SDS011;28727;50.068;14.452;2022-10-28T08:10:02;10.65;;;8.40;;
43114;SDS011;28727;50.068;14.452;2022-10-28T08:12:34;10.60;;;8.48;;
43114;SDS011;28727;50.068;14.452;2022-10-28T08:15:06;11.00;;;9.75;;
43114;SDS011;28727;50.068;14.452;2022-10-28T08:17:40;12.95;;;8.50;;
43114;SDS011;28727;50.068;14.452;2022-10-28T08:20:14;13.60;;;8.50;;
43114;SDS011;28727;50.068;14.452;2022-10-28T08:22:49;10.23;;;7.50;;
43114;SDS011;28727;50.068;14.452;2022-10-28T08:25:21;8.60;;;6.82;;
43114;SDS011;28727;50.068;14.452;2022-10-28T08:27:56;8.63;;;7.05;;
43114;SDS011;28727;50.068;14.452;2022-10-28T08:30:27;9.60;;;7.25;;
43114;SDS011;28727;50.068;14.452;2022-10-28T08:33:17;10.40;;;6.13;;
43114;SDS011;28727;50.068;14.452;2022-10-28T08:35:49;11.30;;;6.93;;
43114;SDS011;28727;50.068;14.452;2022-10-28T08:38:22;10.32;;;7.70;;
43114;SDS011;28727;50.068;14.452;2022-10-28T08:44:15;8.77;;;7.07;;
43114;SDS011;28727;50.068;14.452;2022-10-28T08:49:38;7.10;;;6.38;;
43114;SDS011;28727;50.068;14.452;2022-10-28T08:52:22;8.45;;;6.80;;
43114;SDS011;28727;50.068;14.452;2022-10-28T08:57:49;8.65;;;6.75;;
43114;SDS011;28727;50.068;14.452;2022-10-28T09:00:23;8.77;;;6.50;;
43114;SDS011;28727;50.068;14.452;2022-10-28T09:05:58;8.98;;;6.82;;
43114;SDS011;28727;50.068;14.452;2022-10-28T09:08:34;9.75;;;6.97;;
43114;SDS011;28727;50.068;14.452;2022-10-28T09:11:34;10.52;;;6.88;;
43114;SDS011;28727;50.068;14.452;2022-10-28T09:14:19;9.52;;;6.55;;
43114;SDS011;28727;50.068;14.452;2022-10-28T09:19:50;9.68;;;6.35;;
43114;SDS011;28727;50.068;14.452;2022-10-28T09:22:27;10.70;;;6.13;;
43114;SDS011;28727;50.068;14.452;2022-10-28T09:25:00;8.57;;;6.63;;
43114;SDS011;28727;50.068;14.452;2022-10-28T09:27:57;10.45;;;6.95;;
43114;SDS011;28727;50.068;14.452;2022-10-28T09:30:59;10.05;;;6.07;;
43114;SDS011;28727;50.068;14.452;2022-10-28T09:33:46;8.52;;;6.10;;
43114;SDS011;28727;50.068;14.452;2022-10-28T09:36:32;8.45;;;6.72;;
43114;SDS011;28727;50.068;14.452;2022-10-28T09:39:19;11.18;;;6.68;;
43114;SDS011;28727;50.068;14.452;2022-10-28T09:41:58;9.65;;;6.07;;
43114;SDS011;28727;50.068;14.452;2022-10-28T09:47:39;9.77;;;6.53;;
43114;SDS011;28727;50.068;14.452;2022-10-28T09:50:17;11.80;;;6.65;;
43114;SDS011;28727;50.068;14.452;2022-10-28T09:53:00;9.73;;;6.57;;
43114;SDS011;28727;50.068;14.452;2022-10-28T09:55:40;9.95;;;6.25;;
43114;SDS011;28727;50.068;14.452;2022-10-28T09:58:14;8.85;;;6.25;;
43114;SDS011;28727;50.068;14.452;2022-10-28T10:00:50;12.00;;;6.32;;
43114;SDS011;28727;50.068;14.452;2022-10-28T10:03:27;9.55;;;6.57;;
43114;SDS011;28727;50.068;14.452;2022-10-28T10:06:01;9.20;;;6.70;;
43114;SDS011;28727;50.068;14.452;2022-10-28T10:08:42;9.68;;;6.60;;
43114;SDS011;28727;50.068;14.452;2022-10-28T10:14:02;9.27;;;6.00;;
43114;SDS011;28727;50.068;14.452;2022-10-28T10:16:41;7.18;;;5.60;;
43114;SDS011;28727;50.068;14.452;2022-10-28T10:19:17;9.02;;;5.65;;
43114;SDS011;28727;50.068;14.452;2022-10-28T10:21:52;7.10;;;5.43;;
43114;SDS011;28727;50.068;14.452;2022-10-28T10:24:31;9.70;;;4.72;;
43114;SDS011;28727;50.068;14.452;2022-10-28T10:27:15;8.00;;;4.93;;
43114;SDS011;28727;50.068;14.452;2022-10-28T10:29:50;8.30;;;5.50;;
43114;SDS011;28727;50.068;14.452;2022-10-28T10:32:31;13.63;;;5.32;;
43114;SDS011;28727;50.068;14.452;2022-10-28T10:37:45;6.90;;;5.25;;
43114;SDS011;28727;50.068;14.452;2022-10-28T10:40:20;8.77;;;5.35;;
43114;SDS011;28727;50.068;14.452;2022-10-28T10:43:14;7.20;;;5.20;;
43114;SDS011;28727;50.068;14.452;2022-10-28T10:45:51;7.60;;;4.95;;
43114;SDS011;28727;50.068;14.452;2022-10-28T10:48:43;7.85;;;4.80;;
43114;SDS011;28727;50.068;14.452;2022-10-28T10:51:21;8.30;;;4.45;;
43114;SDS011;28727;50.068;14.452;2022-10-28T10:54:00;8.27;;;4.50;;
43114;SDS011;28727;50.068;14.452;2022-10-28T10:56:32;7.35;;;4.80;;
43114;SDS011;28727;50.068;14.452;2022-10-28T10:59:04;9.75;;;5.15;;
43114;SDS011;28727;50.068;14.452;2022-10-28T11:01:46;8.70;;;4.97;;
43114;SDS011;28727;50.068;14.452;2022-10-28T11:04:18;6.30;;;4.97;;
43114;SDS011;28727;50.068;14.452;2022-10-28T11:06:55;8.52;;;4.65;;
43114;SDS011;28727;50.068;14.452;2022-10-28T11:12:13;5.95;;;4.05;;
43114;SDS011;28727;50.068;14.452;2022-10-28T11:14:54;7.40;;;4.57;;
43114;SDS011;28727;50.068;14.452;2022-10-28T11:17:59;7.50;;;4.30;;
43114;SDS011;28727;50.068;14.452;2022-10-28T11:26:15;7.45;;;4.95;;
43114;SDS011;28727;50.068;14.452;2022-10-28T11:34:46;12.52;;;4.22;;
43114;SDS011;28727;50.068;14.452;2022-10-28T11:40:54;6.03;;;3.78;;
43114;SDS011;28727;50.068;14.452;2022-10-28T11:46:37;6.50;;;3.05;;
43114;SDS011;28727;50.068;14.452;2022-10-28T12:07:09;6.35;;;4.38;;
43114;SDS011;28727;50.068;14.452;2022-10-28T12:15:25;11.73;;;5.25;;
43114;SDS011;28727;50.068;14.452;2022-10-28T12:18:03;7.60;;;5.10;;
43114;SDS011;28727;50.068;14.452;2022-10-28T12:21:09;10.68;;;5.65;;
43114;SDS011;28727;50.068;14.452;2022-10-28T12:23:48;7.45;;;4.82;;
43114;SDS011;28727;50.068;14.452;2022-10-28T12:26:21;8.80;;;5.85;;
43114;SDS011;28727;50.068;14.452;2022-10-28T12:29:02;8.50;;;5.03;;
43114;SDS011;28727;50.068;14.452;2022-10-28T12:31:44;7.35;;;5.05;;
43114;SDS011;28727;50.068;14.452;2022-10-28T12:34:22;9.05;;;5.40;;
43114;SDS011;28727;50.068;14.452;2022-10-28T12:37:05;5.72;;;4.07;;
43114;SDS011;28727;50.068;14.452;2022-10-28T12:39:38;8.95;;;3.90;;
43114;SDS011;28727;50.068;14.452;2022-10-28T12:42:31;7.70;;;4.03;;
43114;SDS011;28727;50.068;14.452;2022-10-28T12:45:13;5.22;;;3.75;;
43114;SDS011;28727;50.068;14.452;2022-10-28T12:47:49;11.63;;;4.28;;
43114;SDS011;28727;50.068;14.452;2022-10-28T12:50:31;7.43;;;4.00;;
43114;SDS011;28727;50.068;14.452;2022-10-28T12:53:23;10.00;;;4.70;;
43114;SDS011;28727;50.068;14.452;2022-10-28T12:59:14;7.78;;;4.22;;
43114;SDS011;28727;50.068;14.452;2022-10-28T13:01:49;7.32;;;5.20;;
43114;SDS011;28727;50.068;14.452;2022-10-28T13:04:22;10.88;;;4.55;;
43114;SDS011;28727;50.068;14.452;2022-10-28T13:09:40;10.55;;;4.55;;
43114;SDS011;28727;50.068;14.452;2022-10-28T13:12:43;7.75;;;3.97;;
43114;SDS011;28727;50.068;14.452;2022-10-28T13:15:48;8.90;;;4.40;;
43114;SDS011;28727;50.068;14.452;2022-10-28T13:26:54;10.68;;;4.45;;
43114;SDS011;28727;50.068;14.452;2022-10-28T13:29:31;7.10;;;3.90;;
43114;SDS011;28727;50.068;14.452;2022-10-28T13:32:05;6.90;;;4.55;;
43114;SDS011;28727;50.068;14.452;2022-10-28T13:34:37;5.78;;;3.90;;
43114;SDS011;28727;50.068;14.452;2022-10-28T13:37:20;8.25;;;3.95;;
43114;SDS011;28727;50.068;14.452;2022-10-28T13:39:54;8.48;;;4.20;;
43114;SDS011;28727;50.068;14.452;2022-10-28T13:42:29;5.95;;;3.70;;
43114;SDS011;28727;50.068;14.452;2022-10-28T13:45:02;5.93;;;3.85;;
43114;SDS011;28727;50.068;14.452;2022-10-28T13:47:36;6.50;;;3.70;;
43114;SDS011;28727;50.068;14.452;2022-10-28T13:50:09;7.50;;;3.70;;
43114;SDS011;28727;50.068;14.452;2022-10-28T13:53:31;6.50;;;3.60;;
43114;SDS011;28727;50.068;14.452;2022-10-28T13:56:18;11.57;;;4.38;;
43114;SDS011;28727;50.068;14.452;2022-10-28T13:59:02;7.68;;;3.75;;
43114;SDS011;28727;50.068;14.452;2022-10-28T14:02:00;11.15;;;4.28;;
43114;SDS011;28727;50.068;14.452;2022-10-28T14:04:58;7.78;;;4.00;;
43114;SDS011;28727;50.068;14.452;2022-10-28T14:10:37;8.55;;;4.07;;
43114;SDS011;28727;50.068;14.452;2022-10-28T14:13:17;8.95;;;4.15;;
43114;SDS011;28727;50.068;14.452;2022-10-28T14:16:08;8.23;;;4.18;;
43114;SDS011;28727;50.068;14.452;2022-10-28T14:22:05;8.30;;;4.20;;
43114;SDS011;28727;50.068;14.452;2022-10-28T14:24:41;8.25;;;4.38;;
43114;SDS011;28727;50.068;14.452;2022-10-28T14:32:49;9.77;;;4.00;;
43114;SDS011;28727;50.068;14.452;2022-10-28T14:35:40;12.40;;;5.18;;
43114;SDS011;28727;50.068;14.452;2022-10-28T14:52:35;13.38;;;5.32;;
43114;SDS011;28727;50.068;14.452;2022-10-28T14:55:07;9.32;;;4.55;;
43114;SDS011;28727;50.068;14.452;2022-10-28T15:03:49;11.88;;;6.13;;
43114;SDS011;28727;50.068;14.452;2022-10-28T15:06:30;14.98;;;6.57;;
43114;SDS011;28727;50.068;14.452;2022-10-28T15:11:57;30.17;;;7.70;;
43114;SDS011;28727;50.068;14.452;2022-10-28T15:15:14;18.77;;;6.82;;
43114;SDS011;28727;50.068;14.452;2022-10-28T15:17:36;21.83;;;7.50;;
43114;SDS011;28727;50.068;14.452;2022-10-28T15:20:26;19.63;;;6.95;;
43114;SDS011;28727;50.068;14.452;2022-10-28T15:23:20;13.93;;;6.57;;
43114;SDS011;28727;50.068;14.452;2022-10-28T15:28:38;19.17;;;6.93;;
43114;SDS011;28727;50.068;14.452;2022-10-28T15:31:15;16.27;;;6.22;;
43114;SDS011;28727;50.068;14.452;2022-10-28T15:33:48;15.73;;;6.80;;
43114;SDS011;28727;50.068;14.452;2022-10-28T15:36:27;15.50;;;6.80;;
43114;SDS011;28727;50.068;14.452;2022-10-28T15:39:06;14.60;;;6.50;;
43114;SDS011;28727;50.068;14.452;2022-10-28T15:41:51;15.63;;;7.90;;
43114;SDS011;28727;50.068;14.452;2022-10-28T15:47:14;16.35;;;6.90;;
43114;SDS011;28727;50.068;14.452;2022-10-28T15:49:56;14.20;;;6.40;;
43114;SDS011;28727;50.068;14.452;2022-10-28T15:52:35;18.48;;;7.10;;
43114;SDS011;28727;50.068;14.452;2022-10-28T15:57:53;14.43;;;8.15;;
43114;SDS011;28727;50.068;14.452;2022-10-28T16:00:33;15.40;;;7.88;;
43114;SDS011;28727;50.068;14.452;2022-10-28T16:03:11;13.18;;;7.97;;
43114;SDS011;28727;50.068;14.452;2022-10-28T16:06:03;18.95;;;8.50;;
43114;SDS011;28727;50.068;14.452;2022-10-28T16:08:37;14.80;;;8.30;;
43114;SDS011;28727;50.068;14.452;2022-10-28T16:13:46;18.23;;;9.10;;
43114;SDS011;28727;50.068;14.452;2022-10-28T16:16:28;15.15;;;8.95;;
43114;SDS011;28727;50.068;14.452;2022-10-28T16:19:07;18.08;;;8.82;;
43114;SDS011;28727;50.068;14.452;2022-10-28T16:21:41;19.13;;;8.30;;
43114;SDS011;28727;50.068;14.452;2022-10-28T16:24:17;19.17;;;8.77;;
43114;SDS011;28727;50.068;14.452;2022-10-28T16:29:47;20.05;;;9.60;;
43114;SDS011;28727;50.068;14.452;2022-10-28T16:32:22;15.95;;;8.85;;
43114;SDS011;28727;50.068;14.452;2022-10-28T16:35:02;16.67;;;9.60;;
43114;SDS011;28727;50.068;14.452;2022-10-28T16:37:45;18.38;;;9.75;;
43114;SDS011;28727;50.068;14.452;2022-10-28T16:40:25;21.13;;;9.38;;
43114;SDS011;28727;50.068;14.452;2022-10-28T16:43:18;15.43;;;9.90;;
43114;SDS011;28727;50.068;14.452;2022-10-28T16:45:57;24.45;;;9.45;;
43114;SDS011;28727;50.068;14.452;2022-10-28T16:48:30;21.23;;;9.75;;
43114;SDS011;28727;50.068;14.452;2022-10-28T16:53:40;19.95;;;10.40;;
43114;SDS011;28727;50.068;14.452;2022-10-28T16:56:17;21.38;;;9.25;;
43114;SDS011;28727;50.068;14.452;2022-10-28T16:58:49;18.67;;;9.35;;
43114;SDS011;28727;50.068;14.452;2022-10-28T17:01:20;16.88;;;9.73;;
43114;SDS011;28727;50.068;14.452;2022-10-28T17:04:00;16.52;;;8.38;;
43114;SDS011;28727;50.068;14.452;2022-10-28T17:06:35;17.50;;;9.45;;
43114;SDS011;28727;50.068;14.452;2022-10-28T17:09:11;18.45;;;9.98;;
43114;SDS011;28727;50.068;14.452;2022-10-28T17:11:43;19.67;;;10.27;;
43114;SDS011;28727;50.068;14.452;2022-10-28T17:16:49;22.17;;;9.93;;
43114;SDS011;28727;50.068;14.452;2022-10-28T17:19:24;17.70;;;10.15;;
43114;SDS011;28727;50.068;14.452;2022-10-28T17:21:59;19.85;;;10.07;;
43114;SDS011;28727;50.068;14.452;2022-10-28T17:24:31;18.55;;;10.20;;
43114;SDS011;28727;50.068;14.452;2022-10-28T17:27:03;19.65;;;9.90;;
43114;SDS011;28727;50.068;14.452;2022-10-28T17:29:42;21.55;;;10.18;;
43114;SDS011;28727;50.068;14.452;2022-10-28T17:34:45;21.13;;;10.68;;
43114;SDS011;28727;50.068;14.452;2022-10-28T17:37:17;16.52;;;10.65;;
43114;SDS011;28727;50.068;14.452;2022-10-28T17:39:51;21.08;;;11.27;;
43114;SDS011;28727;50.068;14.452;2022-10-28T17:42:23;16.73;;;10.43;;
43114;SDS011;28727;50.068;14.452;2022-10-28T17:44:56;18.20;;;10.82;;
43114;SDS011;28727;50.068;14.452;2022-10-28T17:47:28;17.05;;;12.02;;
43114;SDS011;28727;50.068;14.452;2022-10-28T17:50:00;21.20;;;11.48;;
43114;SDS011;28727;50.068;14.452;2022-10-28T17:52:34;19.35;;;12.20;;
43114;SDS011;28727;50.068;14.452;2022-10-28T17:55:08;22.70;;;11.75;;
43114;SDS011;28727;50.068;14.452;2022-10-28T17:57:40;18.25;;;11.40;;
43114;SDS011;28727;50.068;14.452;2022-10-28T18:00:17;19.83;;;11.50;;
43114;SDS011;28727;50.068;14.452;2022-10-28T18:02:52;16.30;;;11.82;;
43114;SDS011;28727;50.068;14.452;2022-10-28T18:05:26;15.63;;;10.73;;
43114;SDS011;28727;50.068;14.452;2022-10-28T18:07:57;20.05;;;12.50;;
43114;SDS011;28727;50.068;14.452;2022-10-28T18:10:55;19.52;;;11.43;;
43114;SDS011;28727;50.068;14.452;2022-10-28T18:13:32;16.00;;;10.60;;
43114;SDS011;28727;50.068;14.452;2022-10-28T18:16:06;19.23;;;10.13;;
43114;SDS011;28727;50.068;14.452;2022-10-28T18:18:43;19.35;;;10.07;;
43114;SDS011;28727;50.068;14.452;2022-10-28T18:21:15;19.67;;;11.45;;
43114;SDS011;28727;50.068;14.452;2022-10-28T18:23:50;16.35;;;10.98;;
43114;SDS011;28727;50.068;14.452;2022-10-28T18:26:23;18.70;;;10.95;;
43114;SDS011;28727;50.068;14.452;2022-10-28T18:28:56;21.85;;;11.38;;
43114;SDS011;28727;50.068;14.452;2022-10-28T18:31:41;21.13;;;13.48;;
43114;SDS011;28727;50.068;14.452;2022-10-28T18:34:14;20.55;;;12.50;;